createdAt,value
2017-12-04T00:01:15.376Z,79.99
2017-12-04T00:03:44.447Z,79.57
2017-12-04T00:06:12.752Z,79.39
2017-12-04T00:08:41.085Z,79.24
2017-12-04T00:11:09.400Z,79.35
2017-12-04T00:13:38.066Z,79.36
2017-12-04T00:16:06.396Z,79.49
2017-12-04T00:18:34.760Z,79.38
2017-12-04T00:21:03.084Z,79.18
2017-12-04T00:23:32.151Z,79.34
2017-12-04T00:26:01.020Z,79.93
2017-12-04T00:28:29.336Z,79.58
2017-12-04T00:30:57.664Z,79.49
2017-12-04T00:33:25.972Z,79.67
2017-12-04T00:35:54.278Z,79.79
2017-12-04T00:38:23.434Z,80.20
2017-12-04T00:40:51.750Z,80.60
2017-12-04T00:43:20.818Z,80.88
2017-12-04T00:45:49.978Z,81.00
2017-12-04T00:48:19.840Z,81.16
2017-12-04T00:50:48.298Z,81.35
2017-12-04T00:53:16.610Z,81.67
2017-12-04T00:55:44.938Z,82.14
2017-12-04T00:58:14.099Z,82.76
2017-12-04T01:00:42.546Z,83.18
2017-12-04T01:03:10.852Z,83.56
2017-12-04T01:05:39.167Z,83.51
2017-12-04T01:08:07.505Z,83.46
2017-12-04T01:10:35.824Z,83.45
2017-12-04T01:13:04.155Z,83.50
2017-12-04T01:15:32.500Z,83.52
2017-12-04T01:18:01.564Z,83.64
2017-12-04T01:20:29.887Z,83.58
2017-12-04T01:22:58.962Z,83.72
2017-12-04T01:25:27.282Z,83.70
2017-12-04T01:27:55.602Z,83.61
2017-12-04T01:30:23.938Z,83.54
2017-12-04T01:32:52.246Z,83.55
2017-12-04T01:35:20.549Z,83.84
2017-12-04T01:37:49.050Z,83.75
2017-12-04T01:40:18.148Z,83.44
2017-12-04T01:42:47.230Z,83.35
2017-12-04T01:45:15.545Z,83.22
2017-12-04T01:47:44.616Z,83.19
2017-12-04T01:50:12.932Z,83.08
2017-12-04T01:52:42.012Z,82.96
2017-12-04T01:55:11.113Z,82.86
2017-12-04T01:57:39.429Z,82.89
2017-12-04T02:00:07.737Z,82.92
2017-12-04T02:02:36.031Z,82.93
2017-12-04T02:05:04.367Z,83.00
2017-12-04T02:07:32.664Z,83.02
2017-12-04T02:10:00.971Z,82.98
2017-12-04T02:12:29.334Z,82.80
2017-12-04T02:14:57.787Z,82.78
2017-12-04T02:17:26.107Z,82.73
2017-12-04T02:19:54.475Z,82.67
2017-12-04T02:22:22.836Z,82.62
2017-12-04T02:24:51.407Z,82.53
2017-12-04T02:27:20.464Z,82.45
2017-12-04T02:29:48.799Z,82.46
2017-12-04T02:32:17.137Z,82.44
2017-12-04T02:34:45.473Z,82.33
2017-12-04T02:37:13.970Z,82.24
2017-12-04T02:39:42.261Z,82.14
2017-12-04T02:42:10.592Z,82.06
2017-12-04T02:44:39.672Z,82.02
2017-12-04T02:47:07.985Z,82.15
2017-12-04T02:49:36.285Z,82.03
2017-12-04T02:52:04.596Z,81.88
2017-12-04T02:54:32.903Z,81.76
2017-12-04T02:57:01.986Z,81.80
2017-12-04T02:59:31.062Z,81.75
2017-12-04T03:01:59.451Z,81.73
2017-12-04T03:04:27.771Z,81.55
2017-12-04T03:06:56.839Z,81.42
2017-12-04T03:09:25.157Z,81.20
2017-12-04T03:11:54.228Z,81.02
2017-12-04T03:14:23.300Z,80.99
2017-12-04T03:16:51.597Z,80.91
2017-12-04T03:19:19.903Z,80.87
2017-12-04T03:21:49.009Z,80.86
2017-12-04T03:24:18.077Z,80.57
2017-12-04T03:26:46.375Z,80.49
2017-12-04T03:29:14.699Z,80.27
2017-12-04T03:31:43.011Z,80.19
2017-12-04T03:34:11.339Z,80.02
2017-12-04T03:36:40.567Z,79.95
2017-12-04T03:39:08.880Z,80.02
2017-12-04T03:41:37.176Z,80.00
2017-12-04T03:44:05.496Z,79.54
2017-12-04T03:46:33.819Z,79.20
2017-12-04T03:49:02.157Z,78.97
2017-12-04T03:51:30.473Z,78.71
2017-12-04T03:53:58.785Z,78.23
2017-12-04T03:56:27.103Z,78.14
2017-12-04T03:58:56.267Z,78.46
2017-12-04T04:01:24.569Z,78.86
2017-12-04T04:03:53.639Z,79.23
2017-12-04T04:06:21.974Z,79.58
2017-12-04T04:08:50.263Z,80.04
2017-12-04T04:11:18.572Z,80.60
2017-12-04T04:13:46.873Z,81.47
2017-12-04T04:16:15.168Z,82.35
2017-12-04T04:18:43.494Z,83.08
2017-12-04T04:21:12.035Z,83.70
2017-12-04T04:23:41.114Z,84.09
2017-12-04T04:26:10.201Z,84.43
2017-12-04T04:28:38.544Z,84.67
2017-12-04T04:31:06.891Z,84.86
2017-12-04T04:33:36.011Z,85.12
2017-12-04T04:36:04.327Z,85.43
2017-12-04T04:38:32.617Z,85.74
2017-12-04T04:41:01.693Z,86.02
2017-12-04T04:43:30.001Z,86.27
2017-12-04T04:45:58.320Z,86.52
2017-12-04T04:48:26.721Z,86.79
2017-12-04T04:50:55.179Z,87.01
2017-12-04T04:53:24.240Z,87.21
2017-12-04T04:55:52.552Z,87.39
2017-12-04T04:58:21.612Z,87.51
2017-12-04T05:00:49.921Z,87.66
2017-12-04T05:03:18.369Z,87.81
2017-12-04T05:05:46.837Z,87.89
2017-12-04T05:08:15.273Z,87.93
2017-12-04T05:10:43.597Z,88.02
2017-12-04T05:13:12.009Z,88.03
2017-12-04T05:15:40.313Z,88.06
2017-12-04T05:18:09.401Z,87.94
2017-12-04T05:20:38.468Z,87.81
2017-12-04T05:23:06.775Z,87.66
2017-12-04T05:25:35.087Z,87.39
2017-12-04T05:28:04.171Z,87.23
2017-12-04T05:30:32.699Z,87.12
2017-12-04T05:33:01.007Z,87.55
2017-12-04T05:35:29.315Z,87.47
2017-12-04T05:37:58.411Z,87.24
2017-12-04T05:40:26.713Z,87.17
2017-12-04T05:42:55.804Z,86.97
2017-12-04T05:45:24.869Z,86.56
2017-12-04T05:47:53.186Z,86.40
2017-12-04T05:50:22.253Z,86.28
2017-12-04T05:52:50.551Z,86.13
2017-12-04T05:55:19.663Z,85.95
2017-12-04T05:57:48.757Z,85.75
2017-12-04T06:00:17.897Z,85.60
2017-12-04T06:02:46.231Z,85.57
2017-12-04T06:05:14.549Z,85.44
2017-12-04T06:07:42.865Z,85.22
2017-12-04T06:10:11.167Z,85.04
2017-12-04T06:12:39.467Z,84.93
2017-12-04T06:15:08.563Z,84.97
2017-12-04T06:17:36.977Z,84.85
2017-12-04T06:20:05.293Z,84.96
2017-12-04T06:22:34.388Z,84.79
2017-12-04T06:25:03.555Z,84.52
2017-12-04T06:27:31.975Z,84.40
2017-12-04T06:30:00.304Z,84.28
2017-12-04T06:32:28.613Z,84.18
2017-12-04T06:34:56.951Z,84.12
2017-12-04T06:37:26.066Z,83.97
2017-12-04T06:39:54.387Z,83.93
2017-12-04T06:42:22.724Z,83.90
2017-12-04T06:44:51.046Z,83.91
2017-12-04T06:47:19.343Z,83.78
2017-12-04T06:49:47.671Z,83.76
2017-12-04T06:52:15.997Z,83.60
2017-12-04T06:54:44.328Z,83.49
2017-12-04T06:57:13.394Z,83.45
2017-12-04T06:59:42.456Z,83.36
2017-12-04T07:02:10.791Z,83.25
2017-12-04T07:04:39.867Z,83.17
2017-12-04T07:07:08.194Z,83.14
2017-12-04T07:09:36.520Z,82.83
2017-12-04T07:12:04.836Z,82.82
2017-12-04T07:14:33.912Z,82.65
2017-12-04T07:17:02.235Z,82.51
2017-12-04T07:19:30.575Z,82.12
2017-12-04T07:22:00.394Z,82.08
2017-12-04T07:24:30.218Z,82.15
2017-12-04T07:26:58.506Z,82.21
2017-12-04T07:29:27.568Z,82.28
2017-12-04T07:31:55.895Z,82.34
2017-12-04T07:34:24.985Z,82.13
2017-12-04T07:36:54.076Z,82.01
2017-12-04T07:39:23.913Z,82.24
2017-12-04T07:41:52.244Z,82.29
2017-12-04T07:44:20.569Z,82.40
2017-12-04T07:46:48.903Z,82.36
2017-12-04T07:49:17.204Z,82.31
2017-12-04T07:51:45.542Z,82.30
2017-12-04T07:54:13.853Z,81.94
2017-12-04T07:56:42.170Z,82.01
2017-12-04T07:59:11.716Z,82.55
2017-12-04T08:01:40.042Z,83.80
2017-12-04T08:04:08.390Z,84.89
2017-12-04T08:06:36.727Z,86.19
2017-12-04T08:09:05.804Z,87.06
2017-12-04T08:11:34.864Z,87.51
2017-12-04T08:14:03.196Z,88.03
2017-12-04T08:16:31.584Z,88.47
2017-12-04T08:19:00.710Z,88.66
2017-12-04T08:21:29.020Z,88.72
2017-12-04T08:23:57.338Z,88.87
2017-12-04T08:26:26.428Z,89.02
2017-12-04T08:28:54.744Z,89.02
2017-12-04T08:31:23.117Z,89.18
2017-12-04T08:33:51.445Z,89.36
2017-12-04T08:36:21.292Z,89.44
2017-12-04T08:38:50.374Z,89.53
2017-12-04T08:41:18.684Z,89.61
2017-12-04T08:43:47.042Z,89.81
2017-12-04T08:46:15.424Z,89.78
2017-12-04T08:48:43.772Z,89.73
2017-12-04T08:51:12.105Z,89.69
2017-12-04T08:53:41.212Z,89.81
2017-12-04T08:56:09.524Z,89.62
2017-12-04T08:58:37.858Z,89.49
2017-12-04T09:01:07.128Z,89.30
2017-12-04T09:03:35.468Z,89.20
2017-12-04T09:06:03.772Z,88.97
2017-12-04T09:08:32.080Z,88.80
2017-12-04T09:11:01.890Z,88.72
2017-12-04T09:13:30.190Z,88.75
2017-12-04T09:15:59.348Z,88.76
2017-12-04T09:18:27.642Z,89.02
2017-12-04T09:20:55.962Z,89.09
2017-12-04T09:23:25.032Z,89.12
2017-12-04T09:25:54.876Z,89.06
2017-12-04T09:28:23.208Z,89.07
2017-12-04T09:30:51.619Z,89.18
2017-12-04T09:33:19.988Z,89.45
2017-12-04T09:35:48.302Z,89.33
2017-12-04T09:38:17.374Z,89.59
2017-12-04T09:40:47.194Z,89.72
2017-12-04T09:43:17.037Z,89.62
2017-12-04T09:45:46.141Z,89.89
2017-12-04T09:48:14.444Z,89.94
2017-12-04T09:50:42.764Z,89.79
2017-12-04T09:53:11.848Z,89.58
2017-12-04T09:55:41.694Z,89.66
2017-12-04T09:58:10.137Z,89.74
2017-12-04T10:00:38.508Z,89.84
2017-12-04T10:03:07.582Z,89.95
2017-12-04T10:05:36.000Z,90.02
2017-12-04T10:08:04.318Z,90.29
2017-12-04T10:10:32.632Z,90.35
2017-12-04T10:13:00.958Z,90.45
2017-12-04T10:15:29.265Z,90.34
2017-12-04T10:17:58.347Z,90.38
2017-12-04T10:20:26.654Z,90.28
2017-12-04T10:22:55.734Z,90.14
2017-12-04T10:25:24.050Z,90.02
2017-12-04T10:27:52.359Z,89.59
2017-12-04T10:30:20.664Z,89.68
2017-12-04T10:32:50.481Z,89.53
2017-12-04T10:35:18.853Z,89.07
2017-12-04T10:37:47.152Z,88.82
2017-12-04T10:40:15.474Z,88.78
2017-12-04T10:42:43.785Z,88.72
2017-12-04T10:45:12.106Z,88.59
2017-12-04T10:47:41.188Z,88.55
2017-12-04T10:50:09.492Z,87.84
2017-12-04T10:52:38.586Z,87.71
2017-12-04T10:55:08.494Z,87.64
2017-12-04T10:57:36.808Z,87.32
2017-12-04T11:00:05.145Z,86.90
2017-12-04T11:02:33.577Z,86.62
2017-12-04T11:05:01.890Z,86.19
2017-12-04T11:07:30.199Z,85.97
2017-12-04T11:09:59.283Z,85.59
2017-12-04T11:12:28.397Z,85.28
2017-12-04T11:14:56.740Z,85.11
2017-12-04T11:17:25.040Z,84.63
2017-12-04T11:19:53.338Z,84.59
2017-12-04T11:22:22.606Z,84.28
2017-12-04T11:24:50.918Z,84.27
2017-12-04T11:27:19.216Z,83.89
2017-12-04T11:29:48.316Z,83.80
2017-12-04T11:32:17.421Z,83.38
2017-12-04T11:34:46.507Z,83.15
2017-12-04T11:37:15.614Z,83.13
2017-12-04T11:39:44.684Z,82.89
2017-12-04T11:42:13.150Z,82.40
2017-12-04T11:44:41.458Z,81.85
2017-12-04T11:47:10.036Z,81.73
2017-12-04T11:49:39.859Z,81.55
2017-12-04T11:52:08.280Z,81.58
2017-12-04T11:54:36.596Z,81.51
2017-12-04T11:57:05.075Z,81.51
2017-12-04T11:59:33.590Z,81.23
2017-12-04T12:02:01.920Z,81.11
2017-12-04T12:04:30.238Z,80.96
2017-12-04T12:06:58.552Z,80.81
2017-12-04T12:09:27.625Z,80.70
2017-12-04T12:11:57.465Z,80.13
2017-12-04T12:14:26.541Z,79.98
2017-12-04T12:16:55.091Z,80.23
2017-12-04T12:19:23.416Z,80.00
2017-12-04T12:21:51.802Z,79.49
2017-12-04T12:24:20.135Z,79.13
2017-12-04T12:26:48.444Z,78.74
2017-12-04T12:29:16.744Z,78.72
2017-12-04T12:31:45.086Z,78.75
2017-12-04T12:34:13.390Z,78.60
2017-12-04T12:36:41.790Z,78.66
2017-12-04T12:39:10.110Z,78.66
2017-12-04T12:41:38.408Z,78.19
2017-12-04T12:44:06.723Z,77.98
2017-12-04T12:46:35.122Z,77.97
2017-12-04T12:49:04.191Z,77.78
2017-12-04T12:51:32.504Z,77.67
2017-12-04T12:54:01.594Z,77.68
2017-12-04T12:56:29.911Z,77.75
2017-12-04T12:58:58.253Z,77.46
2017-12-04T13:01:27.350Z,77.34
2017-12-04T13:03:56.517Z,77.42
2017-12-04T13:06:24.848Z,77.61
2017-12-04T13:08:53.928Z,77.58
2017-12-04T13:11:22.265Z,77.79
2017-12-04T13:13:50.587Z,77.75
2017-12-04T13:16:18.942Z,77.67
2017-12-04T13:18:47.272Z,77.60
2017-12-04T13:21:16.376Z,77.56
2017-12-04T13:23:45.461Z,77.43
2017-12-04T13:26:14.547Z,77.36
2017-12-04T13:28:42.872Z,77.32
2017-12-04T13:31:11.196Z,77.54
2017-12-04T13:33:57.380Z,76.95
2017-12-04T13:36:40.221Z,76.56
2017-12-04T13:39:08.549Z,76.32
2017-12-04T13:41:36.929Z,76.12
2017-12-04T13:44:05.239Z,75.90
2017-12-04T13:46:33.556Z,75.52
2017-12-04T13:49:02.633Z,75.57
2017-12-04T13:51:30.985Z,75.78
2017-12-04T13:53:59.292Z,75.79
2017-12-04T13:56:27.654Z,75.54
2017-12-04T13:58:55.961Z,75.65
2017-12-04T14:01:24.301Z,75.77
2017-12-04T14:03:52.621Z,75.99
2017-12-04T14:06:20.933Z,76.09
2017-12-04T14:08:49.252Z,76.42
2017-12-04T14:11:17.571Z,76.57
2017-12-04T14:13:45.953Z,76.44
2017-12-04T14:16:14.278Z,76.53
2017-12-04T14:18:42.600Z,76.36
2017-12-04T14:21:10.908Z,76.39
2017-12-04T14:23:40.015Z,76.53
2017-12-04T14:26:08.337Z,76.58
2017-12-04T14:28:36.667Z,76.56
2017-12-04T14:31:06.587Z,76.45
2017-12-04T14:33:35.681Z,76.51
2017-12-04T14:36:04.785Z,76.66
2017-12-04T14:38:33.881Z,76.60
2017-12-04T14:41:02.957Z,76.53
2017-12-04T14:43:31.293Z,76.73
2017-12-04T14:45:59.661Z,76.89
2017-12-04T14:48:27.979Z,76.65
2017-12-04T14:50:56.305Z,76.56
2017-12-04T14:53:25.537Z,76.68
2017-12-04T14:55:53.851Z,76.64
2017-12-04T14:58:22.199Z,76.43
2017-12-04T15:00:50.529Z,76.24
2017-12-04T15:03:20.491Z,76.48
2017-12-04T15:05:49.756Z,76.48
2017-12-04T15:08:18.837Z,76.79
2017-12-04T15:10:47.956Z,76.98
2017-12-04T15:13:16.496Z,76.97
2017-12-04T15:15:44.857Z,76.95
2017-12-04T15:18:13.157Z,76.99
2017-12-04T15:20:41.463Z,77.04
2017-12-04T15:23:09.771Z,77.20
2017-12-04T15:25:38.863Z,77.30
2017-12-04T15:28:07.213Z,77.56
2017-12-04T15:30:35.548Z,77.59
2017-12-04T15:33:03.855Z,77.64
2017-12-04T15:35:32.203Z,77.75
2017-12-04T15:38:01.312Z,77.82
2017-12-04T15:40:29.625Z,78.05
2017-12-04T15:42:58.733Z,78.30
2017-12-04T15:45:27.056Z,78.37
2017-12-04T15:47:56.146Z,78.54
2017-12-04T15:50:24.455Z,78.62
2017-12-04T15:52:52.792Z,78.67
2017-12-04T15:55:22.100Z,78.78
2017-12-04T15:57:50.423Z,78.87
2017-12-04T16:00:18.755Z,79.00
2017-12-04T16:02:47.068Z,79.31
2017-12-04T16:05:16.156Z,79.43
2017-12-04T16:07:45.258Z,79.53
2017-12-04T16:10:14.342Z,79.68
2017-12-04T16:12:42.710Z,79.70
2017-12-04T16:15:11.752Z,79.94
2017-12-04T16:17:40.844Z,80.13
2017-12-04T16:20:09.915Z,80.25
2017-12-04T16:22:38.238Z,80.03
2017-12-04T16:25:06.572Z,79.81
2017-12-04T16:27:34.910Z,79.77
2017-12-04T16:30:03.231Z,79.95
2017-12-04T16:32:31.591Z,80.06
2017-12-04T16:34:59.921Z,80.01
2017-12-04T16:37:29.019Z,80.06
2017-12-04T16:39:58.097Z,80.07
2017-12-04T16:42:27.196Z,80.09
2017-12-04T16:44:55.522Z,80.42
2017-12-04T16:47:23.840Z,80.49
2017-12-04T16:49:52.138Z,80.36
2017-12-04T16:52:20.448Z,80.44
2017-12-04T16:54:49.533Z,80.54
2017-12-04T16:57:17.961Z,80.76
2017-12-04T16:59:46.284Z,80.59
2017-12-04T17:02:14.611Z,80.57
2017-12-04T17:04:42.924Z,80.78
2017-12-04T17:07:11.794Z,80.86
2017-12-04T17:09:40.150Z,80.61
2017-12-04T17:12:08.489Z,80.51
2017-12-04T17:14:36.836Z,80.63
2017-12-04T17:17:05.272Z,80.83
2017-12-04T17:19:33.596Z,80.76
2017-12-04T17:22:01.916Z,80.50
2017-12-04T17:24:30.250Z,80.52
2017-12-04T17:26:58.556Z,80.80
2017-12-04T17:29:26.887Z,80.88
2017-12-04T17:31:55.228Z,80.79
2017-12-04T17:34:23.536Z,80.79
2017-12-04T17:36:51.846Z,80.87
2017-12-04T17:39:20.306Z,80.97
2017-12-04T17:41:49.454Z,81.19
2017-12-04T17:44:17.773Z,81.75
2017-12-04T17:46:46.996Z,82.19
2017-12-04T17:49:16.667Z,82.03
2017-12-04T17:51:44.983Z,82.10
2017-12-04T17:54:13.980Z,82.43
2017-12-04T17:56:42.326Z,82.35
2017-12-04T17:59:10.683Z,82.23
2017-12-04T18:01:39.010Z,82.19
2017-12-04T18:04:08.085Z,82.18
2017-12-04T18:06:36.412Z,81.94
2017-12-04T18:09:05.522Z,82.15
2017-12-04T18:11:34.708Z,82.51
2017-12-04T18:14:03.028Z,82.43
2017-12-04T18:16:31.366Z,82.38
2017-12-04T18:18:59.692Z,82.49
2017-12-04T18:21:28.097Z,82.50
2017-12-04T18:23:56.482Z,82.50
2017-12-04T18:26:26.732Z,82.52
2017-12-04T18:28:55.053Z,82.48
2017-12-04T18:31:23.371Z,82.53
2017-12-04T18:33:51.684Z,82.52
2017-12-04T18:36:20.792Z,82.53
2017-12-04T18:38:49.857Z,82.59
2017-12-04T18:41:18.970Z,82.68
2017-12-04T18:43:48.223Z,82.77
2017-12-04T18:46:16.543Z,82.99
2017-12-04T18:48:44.862Z,82.86
2017-12-04T18:51:13.959Z,83.22
2017-12-04T18:53:43.034Z,82.95
2017-12-04T18:56:11.453Z,83.09
2017-12-04T18:58:39.806Z,83.25
2017-12-04T19:01:08.148Z,83.39
2017-12-04T19:03:36.485Z,83.40
2017-12-04T19:06:05.557Z,83.17
2017-12-04T19:08:34.320Z,83.12
2017-12-04T19:11:02.648Z,83.31
2017-12-04T19:13:30.994Z,83.59
2017-12-04T19:15:59.311Z,83.71
2017-12-04T19:18:28.381Z,83.83
2017-12-04T19:20:56.687Z,83.39
2017-12-04T19:23:25.036Z,83.13
2017-12-04T19:25:54.208Z,83.20
2017-12-04T19:28:22.492Z,82.99
2017-12-04T19:30:50.902Z,83.05
2017-12-04T19:33:20.754Z,82.89
2017-12-04T19:35:49.855Z,82.99
2017-12-04T19:38:18.220Z,83.25
2017-12-04T19:40:46.532Z,82.99
2017-12-04T19:43:14.833Z,82.76
2017-12-04T19:45:43.138Z,82.76
2017-12-04T19:48:11.446Z,82.58
2017-12-04T19:50:40.524Z,82.80
2017-12-04T19:53:08.877Z,82.96
2017-12-04T19:55:37.198Z,83.18
2017-12-04T19:58:06.274Z,83.04
2017-12-04T20:00:34.648Z,83.12
2017-12-04T20:03:03.821Z,83.35
2017-12-04T20:05:32.180Z,83.61
2017-12-04T20:08:01.803Z,83.26
2017-12-04T20:10:30.135Z,83.58
2017-12-04T20:12:58.480Z,83.56
2017-12-04T20:15:26.836Z,83.46
2017-12-04T20:17:55.900Z,83.18
2017-12-04T20:22:55.974Z,82.69
2017-12-04T20:25:25.076Z,82.80
2017-12-04T20:27:53.500Z,83.34
2017-12-04T20:30:21.810Z,83.20
2017-12-04T20:32:50.209Z,82.64
2017-12-04T20:35:18.545Z,82.90
2017-12-04T20:37:46.886Z,83.05
2017-12-04T20:40:15.212Z,82.87
2017-12-04T20:42:43.520Z,82.64
2017-12-04T20:45:11.846Z,82.47
2017-12-04T20:47:40.150Z,82.69
2017-12-04T20:50:08.538Z,82.72
2017-12-04T20:52:36.863Z,82.38
2017-12-04T20:55:05.935Z,82.08
2017-12-04T20:57:35.749Z,82.03
2017-12-04T21:00:04.099Z,81.83
2017-12-04T21:02:33.362Z,81.90
2017-12-04T21:05:02.428Z,81.83
2017-12-04T21:07:30.759Z,81.70
2017-12-04T21:13:28.220Z,81.26
2017-12-04T21:16:20.265Z,81.53
2017-12-04T21:18:48.592Z,81.33
2017-12-04T21:21:17.693Z,81.67
2017-12-04T21:23:46.756Z,82.00
2017-12-04T21:26:15.075Z,82.12
2017-12-04T21:28:44.166Z,82.17
2017-12-04T21:31:13.272Z,82.15
2017-12-04T21:33:42.336Z,82.28
2017-12-04T21:36:10.658Z,82.08
2017-12-04T21:38:38.976Z,81.77
2017-12-04T21:41:07.322Z,81.56
2017-12-04T21:43:35.616Z,81.66
2017-12-04T21:46:03.907Z,81.59
2017-12-04T21:48:32.230Z,81.52
2017-12-04T21:51:00.525Z,81.63
2017-12-04T21:53:29.613Z,81.84
2017-12-04T21:55:57.965Z,81.61
2017-12-04T21:58:26.274Z,81.48
2017-12-04T22:00:54.577Z,81.34
2017-12-04T22:03:23.675Z,81.12
2017-12-04T22:05:52.002Z,81.42
2017-12-04T22:08:20.321Z,81.46
2017-12-04T22:10:49.400Z,81.48
2017-12-04T22:13:17.703Z,81.21
2017-12-04T22:15:46.781Z,81.33
2017-12-04T22:18:15.129Z,81.23
2017-12-04T22:20:43.428Z,81.59
2017-12-04T22:23:11.755Z,81.40
2017-12-04T22:25:40.815Z,81.29
2017-12-04T22:28:09.664Z,81.25
2017-12-04T22:30:37.967Z,81.11
2017-12-04T22:33:07.153Z,81.49
2017-12-04T22:35:35.659Z,82.03
2017-12-04T22:38:03.984Z,82.00
2017-12-04T22:40:32.305Z,81.68
2017-12-04T22:43:00.599Z,81.44
2017-12-04T22:45:28.905Z,81.27
2017-12-04T22:47:57.225Z,81.18
2017-12-04T22:50:26.350Z,80.96
2017-12-04T22:52:54.800Z,80.89
2017-12-04T22:55:23.887Z,81.18
2017-12-04T22:57:52.962Z,80.91
2017-12-04T23:00:31.117Z,80.45
2017-12-04T23:02:59.430Z,80.69
2017-12-04T23:05:28.459Z,80.47
2017-12-04T23:07:58.295Z,80.40
2017-12-04T23:10:27.362Z,80.40
2017-12-04T23:12:55.717Z,80.65
2017-12-04T23:15:24.022Z,80.60
2017-12-04T23:17:52.385Z,80.76
2017-12-04T23:20:20.707Z,80.70
2017-12-04T23:22:49.014Z,80.62
2017-12-04T23:25:17.321Z,80.50
2017-12-04T23:27:45.645Z,80.75
2017-12-04T23:30:13.963Z,80.76
2017-12-04T23:32:42.269Z,80.40
2017-12-04T23:35:10.572Z,80.03
2017-12-04T23:37:39.668Z,79.89
2017-12-04T23:40:07.971Z,80.02
2017-12-04T23:42:37.045Z,80.25
2017-12-04T23:45:05.361Z,80.13
2017-12-04T23:47:34.459Z,80.16
2017-12-04T23:50:03.540Z,80.31
2017-12-04T23:52:31.844Z,80.45
2017-12-04T23:55:00.177Z,80.03
2017-12-04T23:57:28.473Z,79.88
2017-12-04T23:59:56.819Z,79.65
